Adams Lake, Indiana
Current Conditions -  °F | °C
As of 1:55 PM on Sunday 23 Nov 2014 (Local Time) from KANQ Reporting Station
Few Clouds Few Clouds  
Wind Chill: 11°   Ceiling: Unl
Heat Index: 11°   Visibility: 10mi
Dew Point:   Wind: 7mph
Humidity: 67%   Direction: 150°SSE
Pressure: 29.7"   Gusts: NA
Location:  41.5677°N, 85.3125°W
Report Text: KANQ 231855Z AUTO 15006KT 10SM FEW110 11/05 A2970 RMK
Loading
Personal Weather Stations






























Interactive Weather Map New forecast layout! Learn more

10-Day Weather Forecast

Advertisements
Track Severe Weather on mobile